Time;durP1;ratioP1;P1;durP2;ratioP2;P2;SDS_P1;SDS_P2;PMS_P1;PMS_P2;Temp;Humidity;BMP_temperature;BMP_pressure;BME280_temperature;BME280_humidity;BME280_pressure;Samples;Min_cycle;Max_cycle;Signal;HPM_P1;HPM_P2
2020/12/02 00:02:09;;;;;;;;;;;;;;;3.51;100.00;99436.38;5076824;28;19946;-81
2020/12/02 00:04:34;;;;;;;;;;;;;;;3.53;100.00;99437.22;5076922;28;19912;-81
2020/12/02 00:06:59;;;;;;;;;;;;;;;3.48;100.00;99433.84;5077443;28;19917;-81
2020/12/02 00:09:25;;;;;;;;;;;;;;;3.31;100.00;99426.97;5076862;28;20369;-81
2020/12/02 00:11:51;;;;;;;;;;;;;;;3.25;100.00;99431.19;5077029;28;19990;-81
2020/12/02 00:14:34;;;;;;;;;;;;;;;3.26;100.00;99427.78;5059911;28;19944;-81
2020/12/02 00:16:59;;;;;;;;;;;;;;;3.16;100.00;99424.38;5076841;28;20011;-81
2020/12/02 00:19:25;;;;;;;;;;;;;;;3.16;100.00;99431.16;5076981;28;19998;-81
2020/12/02 00:22:05;;;;;;;;;;;;;;;2.98;100.00;99431.91;5076981;28;19918;-81
2020/12/02 00:24:33;;;;;;;;;;;;;;;3.04;100.00;99432.78;5059770;28;20332;-81
2020/12/02 00:26:59;;;;;;;;;;;;;;;3.07;100.00;99431.94;5076455;28;19954;-81
2020/12/02 00:29:25;;;;;;;;;;;;;;;3.25;100.00;99424.41;5077960;28;19917;-81
2020/12/02 00:31:50;;;;;;;;;;;;;;;3.25;100.00;99426.09;5078425;28;19912;-81
2020/12/02 00:34:15;;;;;;;;;;;;;;;3.58;100.00;99427.06;5076668;28;20583;-81
2020/12/02 00:36:41;;;;;;;;;;;;;;;3.26;100.00;99423.56;5059842;28;19934;-81
2020/12/02 00:39:06;;;;;;;;;;;;;;;3.41;100.00;99427.03;5076757;28;19920;-81
2020/12/02 00:41:31;;;;;;;;;;;;;;;3.65;100.00;99426.22;5076869;28;19913;-82
2020/12/02 00:43:56;;;;;;;;;;;;;;;3.46;100.00;99425.34;5077333;28;19912;-81
2020/12/02 00:46:22;;;;;;;;;;;;;;;3.59;100.00;99431.31;5077083;28;20306;-81
2020/12/02 00:48:50;;;;;;;;;;;;;;;3.83;100.00;99430.53;5078675;28;19912;-81
2020/12/02 00:51:16;;;;;;;;;;;;;;;3.42;100.00;99428.72;5077687;28;19961;-82
2020/12/02 00:53:41;;;;;;;;;;;;;;;3.58;100.00;99429.59;5076786;28;20003;-82
2020/12/02 00:56:06;;;;;;;;;;;;;;;3.30;100.00;99432.91;5076602;28;19912;-82
2020/12/02 00:58:31;;;;;;;;;;;;;;;3.23;100.00;99423.53;5076629;28;20334;-82
2020/12/02 01:00:57;;;;;;;;;;;;;;;3.37;100.00;99425.31;5078039;28;19918;-81
2020/12/02 01:03:24;;;;;;;;;;;;;;;3.55;100.00;99426.19;5062163;28;19913;-81
2020/12/02 01:05:50;;;;;;;;;;;;;;;3.22;100.00;99421.00;5080957;28;19916;-81
2020/12/02 01:08:21;;;;;;;;;;;;;;;3.32;100.00;99425.28;5080255;28;19957;-82
2020/12/02 01:10:48;;;;;;;;;;;;;;;3.15;100.00;99430.31;5081326;28;19912;-81
2020/12/02 01:13:13;;;;;;;;;;;;;;;3.03;100.00;99428.53;5080447;28;19913;-82
2020/12/02 01:15:39;;;;;;;;;;;;;;;3.41;100.00;99421.94;5080032;28;20009;-82
2020/12/02 01:18:11;;;;;;;;;;;;;;;3.38;100.00;99419.38;5080164;28;19916;-82
2020/12/02 01:20:37;;;;;;;;;;;;;;;3.21;100.00;99424.38;5080479;28;20011;-82
2020/12/02 01:23:02;;;;;;;;;;;;;;;3.23;100.00;99421.00;5080406;28;20376;-82
2020/12/02 01:25:28;;;;;;;;;;;;;;;3.32;100.00;99418.50;5082365;28;20404;-82
2020/12/02 01:28:06;;;;;;;;;;;;;;;3.33;100.00;99417.66;5063921;28;20019;-81
2020/12/02 01:30:31;;;;;;;;;;;;;;;3.31;100.00;99421.06;5080621;28;19962;-82
2020/12/02 01:32:57;;;;;;;;;;;;;;;3.06;100.00;99425.19;5081983;28;19913;-82
2020/12/02 01:35:23;;;;;;;;;;;;;;;3.28;100.00;99429.50;5063963;28;19958;-82
2020/12/02 01:37:54;;;;;;;;;;;;;;;3.68;100.00;99416.91;5079864;28;19912;-82
2020/12/02 01:40:24;;;;;;;;;;;;;;;3.85;99.32;99421.19;5080410;28;19916;-82
2020/12/02 01:43:08;;;;;;;;;;;;;;;3.81;100.00;99422.03;5079713;28;20058;-82
2020/12/02 01:45:35;;;;;;;;;;;;;;;3.60;100.00;99417.72;5080079;28;20289;-82
2020/12/02 01:48:19;;;;;;;;;;;;;;;3.16;100.00;99415.88;5063429;28;19927;-82
2020/12/02 01:50:46;;;;;;;;;;;;;;;3.51;100.00;99421.97;5081047;28;19920;-82
2020/12/02 01:53:14;;;;;;;;;;;;;;;3.51;100.00;99416.88;5080410;28;19912;-82
2020/12/02 01:55:41;;;;;;;;;;;;;;;3.19;100.00;99421.81;5080170;28;19962;-82
2020/12/02 01:58:10;;;;;;;;;;;;;;;3.60;100.00;99422.81;5079370;28;20369;-82
2020/12/02 02:00:35;;;;;;;;;;;;;;;3.38;100.00;99412.59;5062311;28;19913;-82
2020/12/02 02:03:12;;;;;;;;;;;;;;;3.82;100.00;99413.56;5079955;28;19919;-82
2020/12/02 02:05:37;;;;;;;;;;;;;;;3.45;100.00;99416.00;5062167;28;19913;-82
2020/12/02 02:08:03;;;;;;;;;;;;;;;3.61;100.00;99422.84;5078676;28;19978;-82
2020/12/02 02:10:31;;;;;;;;;;;;;;;3.09;100.00;99426.03;5079015;28;19927;-82
2020/12/02 02:13:16;;;;;;;;;;;;;;;3.23;100.00;99417.59;5079183;28;19919;-82
2020/12/02 02:15:43;;;;;;;;;;;;;;;3.12;100.00;99420.09;5079215;28;19917;-82
2020/12/02 02:18:10;;;;;;;;;;;;;;;3.03;100.00;99420.06;5078887;28;19912;-82
2020/12/02 02:20:37;;;;;;;;;;;;;;;2.96;100.00;99408.16;5081009;28;19913;-82
2020/12/02 02:23:03;;;;;;;;;;;;;;;3.44;100.00;99401.56;5062161;28;19913;-82
2020/12/02 02:25:28;;;;;;;;;;;;;;;3.35;100.00;99404.91;5061441;28;19921;-82
2020/12/02 02:27:54;;;;;;;;;;;;;;;2.99;100.00;99403.06;5078345;28;20014;-82
2020/12/02 02:30:19;;;;;;;;;;;;;;;2.85;100.00;99400.44;5078697;28;19916;-82
2020/12/02 02:32:44;;;;;;;;;;;;;;;3.34;100.00;99406.63;5080405;28;19958;-82
2020/12/02 02:35:10;;;;;;;;;;;;;;;3.55;100.00;99397.34;5077618;28;19920;-82
2020/12/02 02:37:35;;;;;;;;;;;;;;;3.55;100.00;99397.34;5078678;28;20003;-82
2020/12/02 02:40:01;;;;;;;;;;;;;;;3.69;100.00;99400.78;5078480;28;19913;-82
2020/12/02 02:42:36;;;;;;;;;;;;;;;3.17;100.00;99398.09;5078088;28;19999;-82
2020/12/02 02:45:05;;;;;;;;;;;;;;;3.75;100.00;99393.16;5078140;28;19912;-82
2020/12/02 02:47:30;;;;;;;;;;;;;;;3.75;100.00;99403.34;5077960;28;20450;-82
2020/12/02 02:49:56;;;;;;;;;;;;;;;3.66;99.89;99403.31;5077852;28;19917;-82
2020/12/02 02:52:21;;;;;;;;;;;;;;;3.63;100.00;99398.22;5061352;28;19913;-82
2020/12/02 02:54:46;;;;;;;;;;;;;;;3.80;100.00;99402.50;5078428;28;19962;-82
2020/12/02 02:57:12;;;;;;;;;;;;;;;3.25;100.00;99401.50;5077372;28;19959;-82
2020/12/02 02:59:37;;;;;;;;;;;;;;;3.42;100.00;99403.25;5078035;28;20007;-82
2020/12/02 03:02:03;;;;;;;;;;;;;;;3.17;100.00;99393.00;5079023;28;19913;-82
2020/12/02 03:04:28;;;;;;;;;;;;;;;3.29;100.00;99393.03;5077661;28;19920;-82
2020/12/02 03:06:54;;;;;;;;;;;;;;;3.29;100.00;99387.94;5078655;28;19927;-82
2020/12/02 03:09:19;;;;;;;;;;;;;;;3.28;100.00;99391.31;5079361;28;19996;-82
2020/12/02 03:11:44;;;;;;;;;;;;;;;3.29;100.00;99393.03;5079027;28;19923;-82
2020/12/02 03:14:10;;;;;;;;;;;;;;;3.86;100.00;99384.69;5077409;28;19916;-82
2020/12/02 03:16:45;;;;;;;;;;;;;;;4.07;97.46;99386.41;5077083;28;19912;-82
2020/12/02 03:19:15;;;;;;;;;;;;;;;4.19;97.59;99387.25;5077013;28;20341;-82
2020/12/02 03:21:40;;;;;;;;;;;;;;;3.95;98.95;99379.59;5077002;28;19912;-82
2020/12/02 03:24:06;;;;;;;;;;;;;;;4.04;98.32;99382.16;5077811;28;19927;-82
2020/12/02 03:26:32;;;;;;;;;;;;;;;3.89;96.57;99379.59;5075847;28;19924;-81
2020/12/02 03:28:57;;;;;;;;;;;;;;;4.00;98.33;99382.16;5077315;28;19941;-82
2020/12/02 03:31:22;;;;;;;;;;;;;;;4.07;97.25;99379.59;5077103;28;19913;-81
2020/12/02 03:33:48;;;;;;;;;;;;;;;3.93;98.59;99381.31;5077071;28;19920;-82
2020/12/02 03:36:14;;;;;;;;;;;;;;;4.18;98.26;99382.16;5077093;28;20035;-81
2020/12/02 03:38:40;;;;;;;;;;;;;;;4.12;98.10;99372.78;5060794;28;19912;-81
2020/12/02 03:41:05;;;;;;;;;;;;;;;3.97;98.29;99381.31;5060289;28;19918;-82
2020/12/02 03:43:31;;;;;;;;;;;;;;;4.10;97.42;99374.50;5076566;28;19913;-81
2020/12/02 03:45:56;;;;;;;;;;;;;;;3.99;97.24;99373.63;5077579;28;20573;-81
2020/12/02 03:48:21;;;;;;;;;;;;;;;3.88;98.32;99375.34;5078565;28;19924;-81
2020/12/02 03:50:47;;;;;;;;;;;;;;;3.67;99.46;99373.59;5059667;28;20006;-81
2020/12/02 03:53:13;;;;;;;;;;;;;;;3.23;100.00;99370.09;5059995;28;20058;-81
2020/12/02 03:55:38;;;;;;;;;;;;;;;3.48;99.36;99375.28;5076515;28;20352;-81
2020/12/02 03:58:04;;;;;;;;;;;;;;;3.71;98.71;99371.06;5077907;28;19919;-81
2020/12/02 04:00:29;;;;;;;;;;;;;;;3.95;97.08;99364.31;5077777;28;19956;-81
2020/12/02 04:02:54;;;;;;;;;;;;;;;3.59;98.17;99362.56;5076660;28;19954;-81
2020/12/02 04:05:20;;;;;;;;;;;;;;;3.28;100.00;99360.78;5076564;28;19913;-81
2020/12/02 04:07:45;;;;;;;;;;;;;;;3.56;99.86;99366.81;5060052;28;19913;-81
2020/12/02 04:10:11;;;;;;;;;;;;;;;3.96;98.37;99356.66;5076532;28;19973;-82
2020/12/02 04:12:36;;;;;;;;;;;;;;;4.03;96.09;99357.50;5084128;28;19936;-81
2020/12/02 04:15:02;;;;;;;;;;;;;;;4.23;96.08;99346.47;5087439;28;20215;-80
2020/12/02 04:17:28;;;;;;;;;;;;;;;4.26;95.96;99349.00;5086655;28;19913;-81
2020/12/02 04:19:53;;;;;;;;;;;;;;;4.12;96.34;99342.22;5082928;28;19913;-81
2020/12/02 04:22:18;;;;;;;;;;;;;;;3.95;97.90;99354.13;5078206;28;19912;-81
2020/12/02 04:24:44;;;;;;;;;;;;;;;3.89;97.63;99354.09;5076926;28;19917;-81
2020/12/02 04:27:09;;;;;;;;;;;;;;;3.80;99.21;99359.19;5077320;28;19949;-82
2020/12/02 04:29:34;;;;;;;;;;;;;;;3.79;97.45;99358.34;5077276;28;19956;-82
2020/12/02 04:32:00;;;;;;;;;;;;;;;3.99;97.70;99360.91;5076224;28;19919;-82
2020/12/02 04:34:25;;;;;;;;;;;;;;;3.54;98.50;99358.31;5059208;28;19919;-81
2020/12/02 04:36:51;;;;;;;;;;;;;;;3.49;98.67;99348.94;5059357;28;19912;-82
2020/12/02 04:39:17;;;;;;;;;;;;;;;3.53;98.11;99350.66;5075711;28;19913;-82
2020/12/02 04:41:42;;;;;;;;;;;;;;;3.24;100.00;99359.09;5077504;28;19920;-82
2020/12/02 04:44:08;;;;;;;;;;;;;;;3.41;99.38;99360.81;5076482;28;19912;-82
2020/12/02 04:46:33;;;;;;;;;;;;;;;3.59;99.25;99363.41;5077101;28;20390;-82
2020/12/02 04:49:03;;;;;;;;;;;;;;;3.23;100.00;99362.47;5075738;28;20309;-82
2020/12/02 04:51:29;;;;;;;;;;;;;;;3.33;100.00;99354.03;5075870;28;19983;-82
2020/12/02 04:53:55;;;;;;;;;;;;;;;3.30;100.00;99360.78;5075500;28;19916;-82
2020/12/02 04:56:20;;;;;;;;;;;;;;;3.28;100.00;99358.22;5075446;28;19995;-81
2020/12/02 04:58:47;;;;;;;;;;;;;;;2.98;100.00;99366.59;5075553;28;19958;-82
2020/12/02 05:01:18;;;;;;;;;;;;;;;2.84;100.00;99358.06;5075758;28;19912;-81
2020/12/02 05:03:47;;;;;;;;;;;;;;;3.41;100.00;99360.81;5076920;28;19934;-81
2020/12/02 05:06:16;;;;;;;;;;;;;;;3.33;100.00;99363.34;5078202;28;19916;-82
2020/12/02 05:08:41;;;;;;;;;;;;;;;3.25;100.00;99353.13;5079657;28;19912;-83
2020/12/02 05:11:08;;;;;;;;;;;;;;;3.16;100.00;99352.25;5080756;28;19919;-82
2020/12/02 05:13:33;;;;;;;;;;;;;;;3.25;100.00;99358.22;5065568;28;19913;-81
2020/12/02 05:16:05;;;;;;;;;;;;;;;3.06;100.00;99353.94;5083231;28;20011;-83
2020/12/02 05:18:31;;;;;;;;;;;;;;;3.03;100.00;99353.91;5080558;28;20398;-83
2020/12/02 05:21:05;;;;;;;;;;;;;;;3.43;100.00;99359.97;5079179;28;19966;-83
2020/12/02 05:23:31;;;;;;;;;;;;;;;3.08;100.00;99357.31;5080139;28;19913;-83
2020/12/02 05:25:57;;;;;;;;;;;;;;;3.03;100.00;99359.00;5081130;28;20059;-82
2020/12/02 05:28:26;;;;;;;;;;;;;;;3.07;100.00;99355.63;5080548;28;19918;-82
2020/12/02 05:31:02;;;;;;;;;;;;;;;3.50;99.70;99355.75;5083269;28;19919;-81
2020/12/02 05:33:27;;;;;;;;;;;;;;;3.73;97.68;99355.78;5067088;28;19962;-81
2020/12/02 05:35:54;;;;;;;;;;;;;;;3.71;98.47;99345.59;5081674;28;19916;-81
2020/12/02 05:38:31;;;;;;;;;;;;;;;3.81;97.89;99345.59;5079218;28;20456;-81
2020/12/02 05:40:56;;;;;;;;;;;;;;;3.78;98.24;99337.09;5081745;28;19912;-82
2020/12/02 05:43:24;;;;;;;;;;;;;;;3.56;99.68;99340.50;5063701;28;20415;-81
2020/12/02 05:45:50;;;;;;;;;;;;;;;3.31;100.00;99340.44;5078461;28;20034;-81
2020/12/02 05:48:19;;;;;;;;;;;;;;;3.47;100.00;99343.03;5060785;28;20479;-81
2020/12/02 05:50:44;;;;;;;;;;;;;;;3.44;100.00;99335.38;5081120;28;19934;-81
2020/12/02 05:53:17;;;;;;;;;;;;;;;3.63;99.59;99338.81;5081685;28;20002;-81
2020/12/02 05:55:43;;;;;;;;;;;;;;;3.33;99.03;99343.84;5081752;28;20369;-82
2020/12/02 05:58:08;;;;;;;;;;;;;;;3.40;99.57;99348.94;5065016;28;19947;-81
2020/12/02 06:00:34;;;;;;;;;;;;;;;3.31;99.60;99345.53;5092867;28;19981;-83
2020/12/02 06:03:00;;;;;;;;;;;;;;;2.85;100.00;99341.94;5102843;22;19928;-79
2020/12/02 06:05:29;;;;;;;;;;;;;;;3.24;100.00;99346.38;5050232;28;19928;-78
2020/12/02 06:07:55;;;;;;;;;;;;;;;3.49;98.69;99338.75;5049630;28;20407;-80
2020/12/02 06:10:23;;;;;;;;;;;;;;;3.24;100.00;99338.72;5056938;28;20008;-80
2020/12/02 06:12:48;;;;;;;;;;;;;;;3.34;99.61;99345.53;5037707;28;19913;-80
2020/12/02 06:15:34;;;;;;;;;;;;;;;3.47;99.20;99336.22;5036359;28;20250;-80
2020/12/02 06:18:11;;;;;;;;;;;;;;;3.24;100.00;99333.63;5018357;28;19919;-79
2020/12/02 06:20:37;;;;;;;;;;;;;;;3.05;100.00;99342.03;5018959;28;19920;-79
2020/12/02 06:23:04;;;;;;;;;;;;;;;3.10;100.00;99337.81;5040201;28;19912;-80
2020/12/02 06:25:48;;;;;;;;;;;;;;;3.33;100.00;99331.13;5056489;28;20000;-79
2020/12/02 06:28:37;;;;;;;;;;;;;;;3.41;99.74;99325.19;5057773;28;19917;-79
2020/12/02 06:31:07;;;;;;;;;;;;;;;3.29;100.00;99331.94;5048583;28;19920;-80
2020/12/02 06:33:36;;;;;;;;;;;;;;;3.29;100.00;99326.00;5056923;28;19919;-80
2020/12/02 06:36:08;;;;;;;;;;;;;;;3.20;100.00;99331.91;5020815;28;19959;-80
2020/12/02 06:38:34;;;;;;;;;;;;;;;3.31;100.00;99335.34;5036889;28;19917;-80
2020/12/02 06:41:00;;;;;;;;;;;;;;;3.30;99.68;99328.53;5070041;28;19913;-80
2020/12/02 06:43:26;;;;;;;;;;;;;;;3.20;100.00;99324.28;5044954;28;19982;-80
2020/12/02 06:45:51;;;;;;;;;;;;;;;3.30;99.65;99328.53;5056888;28;20308;-80
2020/12/02 06:48:27;;;;;;;;;;;;;;;3.29;100.00;99326.00;5056921;28;19972;-78
2020/12/02 06:50:58;;;;;;;;;;;;;;;2.96;100.00;99319.09;5036934;28;19917;-78
2020/12/02 06:53:23;;;;;;;;;;;;;;;2.95;100.00;99315.72;5051737;28;19956;-79
2020/12/02 06:55:55;;;;;;;;;;;;;;;3.20;100.00;99316.66;5035233;28;19920;-80
2020/12/02 06:58:21;;;;;;;;;;;;;;;3.40;100.00;99313.28;5036635;28;19916;-79
2020/12/02 07:00:48;;;;;;;;;;;;;;;3.49;98.53;99316.72;5049282;28;19928;-78
2020/12/02 07:03:16;;;;;;;;;;;;;;;2.98;100.00;99309.78;5055517;28;19924;-79
2020/12/02 07:05:45;;;;;;;;;;;;;;;3.54;98.70;99309.09;5055003;28;19913;-80
2020/12/02 07:08:22;;;;;;;;;;;;;;;3.35;99.19;99316.69;5054973;28;20015;-79
2020/12/02 07:11:00;;;;;;;;;;;;;;;2.99;100.00;99321.66;5054511;28;20336;-78
2020/12/02 07:13:26;;;;;;;;;;;;;;;3.07;100.00;99325.09;5052672;28;19924;-79
2020/12/02 07:15:53;;;;;;;;;;;;;;;3.16;100.00;99325.13;5036727;28;19913;-79
2020/12/02 07:18:19;;;;;;;;;;;;;;;3.43;99.47;99321.78;5051799;28;19913;-79
2020/12/02 07:20:49;;;;;;;;;;;;;;;3.51;99.05;99316.69;5051776;28;19951;-79
2020/12/02 07:23:16;;;;;;;;;;;;;;;2.82;100.00;99319.91;5037044;28;19960;-79
2020/12/02 07:25:42;;;;;;;;;;;;;;;2.88;100.00;99321.63;5051183;28;19972;-77
2020/12/02 07:28:33;;;;;;;;;;;;;;;2.99;100.00;99321.66;5053774;28;19967;-79
2020/12/02 07:30:59;;;;;;;;;;;;;;;3.41;100.00;99320.94;5051213;28;19939;-78
2020/12/02 07:33:28;;;;;;;;;;;;;;;3.07;100.00;99317.44;5050546;28;19913;-79
2020/12/02 07:36:07;;;;;;;;;;;;;;;2.85;100.00;99325.00;5052709;28;19939;-79
2020/12/02 07:38:33;;;;;;;;;;;;;;;2.80;100.00;99321.56;5049164;28;19940;-78
2020/12/02 07:41:11;;;;;;;;;;;;;;;3.33;100.00;99326.03;5052440;28;20254;-79
2020/12/02 07:43:36;;;;;;;;;;;;;;;3.20;100.00;99326.00;5051910;28;20011;-79
2020/12/02 07:46:02;;;;;;;;;;;;;;;3.52;99.48;99324.34;5051818;28;20036;-80
2020/12/02 07:48:28;;;;;;;;;;;;;;;3.22;100.00;99330.22;5053545;28;19936;-80
2020/12/02 07:51:16;;;;;;;;;;;;;;;2.97;100.00;99331.00;5035189;28;19916;-80
2020/12/02 07:54:00;;;;;;;;;;;;;;;3.44;100.00;99326.03;5044719;28;19913;-80
2020/12/02 07:56:32;;;;;;;;;;;;;;;3.46;100.00;99321.78;5052109;28;20469;-80
2020/12/02 07:59:05;;;;;;;;;;;;;;;3.63;100.00;99323.53;5035453;28;19913;-80
2020/12/02 08:01:36;;;;;;;;;;;;;;;3.50;99.42;99313.31;5031766;28;19917;-79
2020/12/02 08:04:20;;;;;;;;;;;;;;;3.35;100.00;99318.38;5033369;28;19921;-79
2020/12/02 08:06:46;;;;;;;;;;;;;;;3.62;98.49;99314.19;5031992;28;19924;-81
2020/12/02 08:09:11;;;;;;;;;;;;;;;3.41;98.76;99309.91;5048083;28;19953;-81
2020/12/02 08:11:47;;;;;;;;;;;;;;;3.16;100.00;99309.00;5032952;28;19963;-79
2020/12/02 08:14:17;;;;;;;;;;;;;;;3.33;100.00;99302.25;5051880;28;19979;-79
2020/12/02 08:16:43;;;;;;;;;;;;;;;3.33;100.00;99303.13;5030988;28;19917;-79
2020/12/02 08:19:10;;;;;;;;;;;;;;;3.69;97.58;99301.44;5038191;28;19924;-79
2020/12/02 08:21:36;;;;;;;;;;;;;;;3.67;99.02;99298.06;5039151;28;20027;-79
2020/12/02 08:24:19;;;;;;;;;;;;;;;3.67;99.19;99292.97;5035435;28;19956;-79
2020/12/02 08:26:46;;;;;;;;;;;;;;;3.77;97.63;99297.22;5048827;28;20378;-78
2020/12/02 08:29:11;;;;;;;;;;;;;;;3.58;97.02;99287.88;5042870;28;19917;-78
2020/12/02 08:31:37;;;;;;;;;;;;;;;3.71;97.63;99288.72;5047671;28;19923;-78
2020/12/02 08:34:08;;;;;;;;;;;;;;;3.88;97.74;99281.09;5031153;28;20419;-78
2020/12/02 08:36:34;;;;;;;;;;;;;;;3.86;97.66;99282.78;5051791;28;19912;-79
2020/12/02 08:38:59;;;;;;;;;;;;;;;3.81;96.40;99287.00;5023434;28;19913;-79
2020/12/02 08:41:24;;;;;;;;;;;;;;;3.98;96.80;99278.50;5041162;28;19959;-78
2020/12/02 08:43:50;;;;;;;;;;;;;;;3.93;98.12;99274.28;5031534;28;19917;-79
2020/12/02 08:46:20;;;;;;;;;;;;;;;3.94;97.66;99275.97;5032721;28;20345;-78
2020/12/02 08:48:46;;;;;;;;;;;;;;;4.05;97.79;99278.50;5033774;28;19920;-80
2020/12/02 08:51:14;;;;;;;;;;;;;;;3.49;99.65;99285.28;5036644;28;19928;-78
2020/12/02 08:53:39;;;;;;;;;;;;;;;3.37;100.00;99278.50;5033298;28;19968;-79
2020/12/02 08:56:05;;;;;;;;;;;;;;;3.63;98.90;99282.78;5050379;28;19917;-79
2020/12/02 08:58:30;;;;;;;;;;;;;;;3.85;99.05;99281.06;5051919;28;19922;-79
2020/12/02 09:00:55;;;;;;;;;;;;;;;3.99;98.34;99274.25;5044721;28;19948;-79
2020/12/02 09:03:24;;;;;;;;;;;;;;;3.82;99.42;99279.38;5043892;28;20011;-78
2020/12/02 09:05:50;;;;;;;;;;;;;;;4.08;97.88;99278.50;5048396;28;19916;-78
2020/12/02 09:08:15;;;;;;;;;;;;;;;4.19;96.13;99277.63;5049902;28;19917;-79
2020/12/02 09:10:41;;;;;;;;;;;;;;;3.69;99.81;99280.22;5048181;28;20438;-79
2020/12/02 09:13:06;;;;;;;;;;;;;;;3.91;98.51;99276.81;5041703;28;20385;-78
2020/12/02 09:15:32;;;;;;;;;;;;;;;4.14;97.87;99276.78;5045336;28;20304;-78
2020/12/02 09:17:57;;;;;;;;;;;;;;;4.18;97.74;99275.09;5044221;28;20003;-79
2020/12/02 09:20:23;;;;;;;;;;;;;;;4.19;99.28;99274.25;5051123;28;19913;-78
2020/12/02 09:22:48;;;;;;;;;;;;;;;4.02;99.65;99279.38;5051561;28;19917;-78
2020/12/02 09:25:15;;;;;;;;;;;;;;;4.28;98.61;99275.94;5055758;28;20066;-78
2020/12/02 09:27:40;;;;;;;;;;;;;;;4.41;97.79;99277.59;5038730;28;19923;-79
2020/12/02 09:30:06;;;;;;;;;;;;;;;4.29;98.15;99273.38;5055389;28;20003;-79
2020/12/02 09:32:32;;;;;;;;;;;;;;;4.25;98.17;99266.59;5055288;28;19913;-78
2020/12/02 09:34:57;;;;;;;;;;;;;;;4.24;98.19;99266.56;5055505;28;20292;-78
2020/12/02 09:37:23;;;;;;;;;;;;;;;4.29;98.92;99263.19;5055335;28;19916;-78
2020/12/02 09:39:48;;;;;;;;;;;;;;;4.50;97.93;99259.72;5053188;28;19920;-78
2020/12/02 09:42:16;;;;;;;;;;;;;;;4.42;96.95;99260.59;5038630;28;20396;-78
2020/12/02 09:45:11;;;;;;;;;;;;;;;4.24;98.65;99246.19;5056065;28;19913;-79
2020/12/02 09:47:36;;;;;;;;;;;;;;;4.29;98.99;99241.91;5051359;28;19923;-79
2020/12/02 09:50:02;;;;;;;;;;;;;;;4.55;98.17;99240.13;5038626;28;19913;-78
2020/12/02 09:52:35;;;;;;;;;;;;;;;4.77;97.04;99245.16;5055070;28;20404;-78
2020/12/02 09:55:01;;;;;;;;;;;;;;;4.84;96.84;99241.72;5055420;28;19962;-77
2020/12/02 09:57:28;;;;;;;;;;;;;;;4.86;96.75;99234.91;5054852;28;19916;-77
2020/12/02 09:59:54;;;;;;;;;;;;;;;4.51;98.41;99230.78;5054789;28;19921;-79
2020/12/02 10:02:20;;;;;;;;;;;;;;;4.69;98.51;99227.31;5037896;28;19959;-78
2020/12/02 10:04:54;;;;;;;;;;;;;;;4.74;97.91;99229.84;5070754;28;19920;-78
2020/12/02 10:07:22;;;;;;;;;;;;;;;4.55;98.61;99224.00;5070807;28;20421;-78
2020/12/02 10:09:57;;;;;;;;;;;;;;;4.61;99.53;99213.78;5037969;28;19913;-78
2020/12/02 10:12:49;;;;;;;;;;;;;;;4.65;99.36;99220.53;5054743;28;19913;-78
2020/12/02 10:15:33;;;;;;;;;;;;;;;4.48;99.91;99212.97;5055293;28;20001;-79
2020/12/02 10:18:01;;;;;;;;;;;;;;;4.54;99.84;99207.00;5056604;28;19913;-78
2020/12/02 10:20:35;;;;;;;;;;;;;;;4.84;98.09;99202.63;5071518;28;20002;-79
2020/12/02 10:23:20;;;;;;;;;;;;;;;5.21;97.16;99193.00;5038544;28;20289;-78
2020/12/02 10:25:58;;;;;;;;;;;;;;;5.49;95.63;99185.97;5055062;28;20014;-79
2020/12/02 10:28:27;;;;;;;;;;;;;;;5.42;96.83;99179.22;5056773;28;20035;-78
2020/12/02 10:30:59;;;;;;;;;;;;;;;5.23;96.73;99173.41;5054689;28;19935;-79
2020/12/02 10:33:40;;;;;;;;;;;;;;;4.18;100.00;99173.97;5071360;28;19916;-77
2020/12/02 10:36:05;;;;;;;;;;;;;;;4.35;100.00;99171.34;5037970;28;19912;-78
2020/12/02 10:38:51;;;;;;;;;;;;;;;4.81;99.30;99167.72;5054873;28;19919;-78
2020/12/02 10:41:19;;;;;;;;;;;;;;;5.11;98.55;99160.72;5054555;28;20051;-78
2020/12/02 10:43:51;;;;;;;;;;;;;;;5.11;98.72;99153.06;5054324;28;20369;-79
2020/12/02 10:46:22;;;;;;;;;;;;;;;4.43;100.00;99150.94;5071036;28;20388;-77
2020/12/02 10:49:14;;;;;;;;;;;;;;;4.54;100.00;99144.09;5038176;28;19912;-78
2020/12/02 10:51:39;;;;;;;;;;;;;;;3.98;100.00;99140.06;5047463;28;19916;-78
2020/12/02 10:54:13;;;;;;;;;;;;;;;4.54;100.00;99136.44;5054206;28;19913;-78
2020/12/02 10:56:42;;;;;;;;;;;;;;;5.05;98.35;99140.38;5054066;28;19920;-78
2020/12/02 10:59:09;;;;;;;;;;;;;;;4.98;95.67;99137.00;5037564;28;19919;-78
2020/12/02 11:01:34;;;;;;;;;;;;;;;5.22;97.47;99135.97;5037713;28;19919;-78
2020/12/02 11:04:00;;;;;;;;;;;;;;;5.58;95.20;99124.56;5054037;28;20011;-78
2020/12/02 11:06:38;;;;;;;;;;;;;;;4.89;96.24;99117.50;5054449;28;19917;-78
2020/12/02 11:09:09;;;;;;;;;;;;;;;5.13;96.98;99105.41;5037402;28;19916;-77
2020/12/02 11:11:41;;;;;;;;;;;;;;;5.36;96.16;99103.50;5054548;28;19959;-78
2020/12/02 11:14:25;;;;;;;;;;;;;;;5.47;95.53;99100.84;5037590;28;20007;-77
2020/12/02 11:17:09;;;;;;;;;;;;;;;5.67;94.81;99103.19;5055143;28;19919;-77
2020/12/02 11:19:37;;;;;;;;;;;;;;;5.36;95.32;99088.19;5054941;28;19920;-79
2020/12/02 11:22:29;;;;;;;;;;;;;;;5.19;96.13;99088.31;5054098;28;19916;-78
2020/12/02 11:25:13;;;;;;;;;;;;;;;5.76;95.54;99092.88;5050713;28;19917;-78
2020/12/02 11:27:39;;;;;;;;;;;;;;;5.49;95.85;99093.16;5034768;28;19925;-77
2020/12/02 11:30:07;;;;;;;;;;;;;;;5.51;95.26;99087.19;5017708;28;19913;-77
2020/12/02 11:32:48;;;;;;;;;;;;;;;5.42;95.37;99077.91;5018098;28;19913;-77
2020/12/02 11:35:32;;;;;;;;;;;;;;;5.26;95.28;99075.50;5035618;28;19917;-77
2020/12/02 11:38:08;;;;;;;;;;;;;;;5.30;95.41;99072.91;5033789;28;19913;-78
2020/12/02 11:40:43;;;;;;;;;;;;;;;4.88;96.69;99071.56;5017852;28;19919;-78
2020/12/02 11:43:13;;;;;;;;;;;;;;;5.06;96.92;99065.47;5035286;28;19917;-77
2020/12/02 11:45:38;;;;;;;;;;;;;;;5.49;95.78;99062.53;5017522;28;19916;-77
2020/12/02 11:48:04;;;;;;;;;;;;;;;5.52;94.91;99059.91;5033226;28;20504;-78
2020/12/02 11:50:33;;;;;;;;;;;;;;;5.41;94.69;99060.91;5034993;28;19952;-78
2020/12/02 11:52:59;;;;;;;;;;;;;;;5.78;94.21;99050.25;5034199;28;19913;-77
2020/12/02 11:55:24;;;;;;;;;;;;;;;5.44;95.08;99045.53;5035397;28;20370;-77
2020/12/02 11:57:51;;;;;;;;;;;;;;;5.60;94.58;99050.47;5035627;28;19917;-77
2020/12/02 12:00:17;;;;;;;;;;;;;;;5.32;95.56;99044.81;5033989;28;19921;-78
2020/12/02 12:03:01;;;;;;;;;;;;;;;4.96;95.46;99037.47;5035051;28;19913;-77
2020/12/02 12:05:45;;;;;;;;;;;;;;;5.24;95.04;99039.78;5034760;28;20666;-77
2020/12/02 12:08:28;;;;;;;;;;;;;;;5.33;95.32;99036.28;5034868;28;19944;-77
2020/12/02 12:11:01;;;;;;;;;;;;;;;4.91;94.92;99031.59;5032662;28;19920;-78
2020/12/02 12:13:34;;;;;;;;;;;;;;;5.14;96.30;99033.09;5033505;28;20008;-78
2020/12/02 12:16:02;;;;;;;;;;;;;;;5.11;94.79;99033.09;5033348;28;20341;-78
2020/12/02 12:18:41;;;;;;;;;;;;;;;5.01;95.10;99035.72;5033746;28;19919;-76
2020/12/02 12:21:16;;;;;;;;;;;;;;;4.91;94.79;99029.03;5035061;28;19913;-77
2020/12/02 12:23:53;;;;;;;;;;;;;;;5.08;94.12;99022.91;5033288;28;19967;-77
2020/12/02 12:26:18;;;;;;;;;;;;;;;5.06;95.00;99016.97;5033287;28;19959;-77
2020/12/02 12:28:44;;;;;;;;;;;;;;;5.48;94.56;99014.88;5033357;28;19945;-77
2020/12/02 12:31:14;;;;;;;;;;;;;;;5.45;94.10;99016.59;5034869;28;19917;-77
2020/12/02 12:33:50;;;;;;;;;;;;;;;5.47;94.05;99008.03;5034453;28;19917;-77
2020/12/02 12:36:20;;;;;;;;;;;;;;;5.62;94.08;99013.00;5033410;28;19913;-77
2020/12/02 12:38:46;;;;;;;;;;;;;;;5.73;93.31;99000.94;5033042;28;19921;-77
2020/12/02 12:41:15;;;;;;;;;;;;;;;5.42;94.56;98998.72;5035001;28;20271;-77
2020/12/02 12:43:46;;;;;;;;;;;;;;;5.45;92.64;98993.59;5033336;28;19976;-77
2020/12/02 12:46:16;;;;;;;;;;;;;;;5.57;92.79;98991.78;5034057;28;19913;-77
2020/12/02 12:48:41;;;;;;;;;;;;;;;5.17;95.11;98979.44;5017951;28;19952;-77
2020/12/02 12:51:07;;;;;;;;;;;;;;;5.26;93.53;98979.34;5033833;28;20347;-78
2020/12/02 12:53:32;;;;;;;;;;;;;;;4.91;94.37;98978.00;5034122;28;19913;-78
2020/12/02 12:55:57;;;;;;;;;;;;;;;5.27;94.66;98975.94;5034946;28;20250;-78
2020/12/02 12:58:23;;;;;;;;;;;;;;;5.22;94.34;98975.97;5033461;28;20031;-77
2020/12/02 13:00:49;;;;;;;;;;;;;;;5.33;94.37;98968.19;5018334;28;19918;-77
2020/12/02 13:03:14;;;;;;;;;;;;;;;4.83;94.02;98969.56;5018054;28;19944;-77